"WATCHING THE WEATHER TO PROTECT LIFE AND PROPERTY"


THERE ARE CURRENTLY NO WATCHES NOR WARNINGS


Aviation
Satellite (InfraRed)


TNCA 251900Z 07014KT 9999 BKN025 29/24 Q1011 NOSIG
TNCB 251855Z 13009KT 090V180 9999 FEW018 SCT022 BKN027 28/24 Q1010
TNCC 251932Z 12011KT 3000 SHRA FEW019TCU SCT034 27/23 Q1011 NOSIG
TNCM 251900Z 09005KT 050V130 9999 SCT016 30/22 Q1014 NOSIG RMK SHRA W